sensor_id;sensor_type;location;lat;lon;timestamp;temperature;humidity
2130;DHT22;1071;52.544;13.374;2022-12-29T00:01:38;10.10;99.90
2130;DHT22;1071;52.544;13.374;2022-12-29T00:04:12;10.10;99.90
2130;DHT22;1071;52.544;13.374;2022-12-29T00:06:52;10.20;99.90
2130;DHT22;1071;52.544;13.374;2022-12-29T00:09:22;10.10;99.90
2130;DHT22;1071;52.544;13.374;2022-12-29T00:11:49;10.10;99.90
2130;DHT22;1071;52.544;13.374;2022-12-29T00:14:21;10.20;99.90
2130;DHT22;1071;52.544;13.374;2022-12-29T00:17:06;10.20;99.90
2130;DHT22;1071;52.544;13.374;2022-12-29T00:19:34;10.20;99.90
2130;DHT22;1071;52.544;13.374;2022-12-29T00:22:22;10.20;99.90
2130;DHT22;1071;52.544;13.374;2022-12-29T00:25:08;10.20;99.90
2130;DHT22;1071;52.544;13.374;2022-12-29T00:27:58;10.20;99.90
2130;DHT22;1071;52.544;13.374;2022-12-29T00:30:56;10.20;99.90
2130;DHT22;1071;52.544;13.374;2022-12-29T00:36:43;10.20;99.90
2130;DHT22;1071;52.544;13.374;2022-12-29T00:39:15;10.20;99.90
2130;DHT22;1071;52.544;13.374;2022-12-29T00:42:05;10.30;99.90
2130;DHT22;1071;52.544;13.374;2022-12-29T00:44:58;10.30;99.90
2130;DHT22;1071;52.544;13.374;2022-12-29T00:47:25;10.30;99.90
2130;DHT22;1071;52.544;13.374;2022-12-29T00:49:56;10.30;99.90
2130;DHT22;1071;52.544;13.374;2022-12-29T00:52:26;10.30;99.90
2130;DHT22;1071;52.544;13.374;2022-12-29T00:58:31;10.20;99.90
2130;DHT22;1071;52.544;13.374;2022-12-29T01:01:02;10.20;99.90
2130;DHT22;1071;52.544;13.374;2022-12-29T01:03:29;10.20;99.90
2130;DHT22;1071;52.544;13.374;2022-12-29T01:05:56;10.20;99.90
2130;DHT22;1071;52.544;13.374;2022-12-29T01:08:27;10.20;99.90
2130;DHT22;1071;52.544;13.374;2022-12-29T01:11:00;10.20;99.90
2130;DHT22;1071;52.544;13.374;2022-12-29T01:13:26;10.20;99.90
2130;DHT22;1071;52.544;13.374;2022-12-29T01:15:56;10.20;99.90
2130;DHT22;1071;52.544;13.374;2022-12-29T01:18:24;10.20;99.90
2130;DHT22;1071;52.544;13.374;2022-12-29T01:20:58;10.20;99.90
2130;DHT22;1071;52.544;13.374;2022-12-29T01:23:25;10.20;99.90
2130;DHT22;1071;52.544;13.374;2022-12-29T01:25:52;10.20;99.90
2130;DHT22;1071;52.544;13.374;2022-12-29T01:28:20;10.20;99.90
2130;DHT22;1071;52.544;13.374;2022-12-29T01:30:47;10.20;99.90
2130;DHT22;1071;52.544;13.374;2022-12-29T01:33:15;10.20;99.90
2130;DHT22;1071;52.544;13.374;2022-12-29T01:35:43;10.20;99.90
2130;DHT22;1071;52.544;13.374;2022-12-29T01:38:13;10.20;99.90
2130;DHT22;1071;52.544;13.374;2022-12-29T01:40:44;10.20;99.90
2130;DHT22;1071;52.544;13.374;2022-12-29T01:43:13;10.20;99.90
2130;DHT22;1071;52.544;13.374;2022-12-29T01:45:45;10.20;99.90
2130;DHT22;1071;52.544;13.374;2022-12-29T01:48:17;10.20;99.90
2130;DHT22;1071;52.544;13.374;2022-12-29T01:50:50;10.20;99.90
2130;DHT22;1071;52.544;13.374;2022-12-29T01:53:19;10.20;99.90
2130;DHT22;1071;52.544;13.374;2022-12-29T01:55:51;10.20;99.90
2130;DHT22;1071;52.544;13.374;2022-12-29T01:58:22;10.10;99.90
2130;DHT22;1071;52.544;13.374;2022-12-29T02:00:50;10.10;99.90
2130;DHT22;1071;52.544;13.374;2022-12-29T02:03:21;10.10;99.90
2130;DHT22;1071;52.544;13.374;2022-12-29T02:05:53;10.00;99.90
2130;DHT22;1071;52.544;13.374;2022-12-29T02:08:26;10.10;99.90
2130;DHT22;1071;52.544;13.374;2022-12-29T02:10:54;10.10;99.90
2130;DHT22;1071;52.544;13.374;2022-12-29T02:13:24;10.10;99.90
2130;DHT22;1071;52.544;13.374;2022-12-29T02:15:58;10.10;99.90
2130;DHT22;1071;52.544;13.374;2022-12-29T02:18:36;10.20;99.90
2130;DHT22;1071;52.544;13.374;2022-12-29T02:21:45;10.20;99.90
2130;DHT22;1071;52.544;13.374;2022-12-29T02:24:50;10.30;99.90
2130;DHT22;1071;52.544;13.374;2022-12-29T02:27:51;10.30;99.90
2130;DHT22;1071;52.544;13.374;2022-12-29T02:30:44;10.30;99.90
2130;DHT22;1071;52.544;13.374;2022-12-29T02:33:23;10.20;99.90
2130;DHT22;1071;52.544;13.374;2022-12-29T02:36:00;10.30;99.90
2130;DHT22;1071;52.544;13.374;2022-12-29T02:38:42;10.20;99.90
2130;DHT22;1071;52.544;13.374;2022-12-29T02:41:19;10.20;99.90
2130;DHT22;1071;52.544;13.374;2022-12-29T02:43:50;10.30;99.90
2130;DHT22;1071;52.544;13.374;2022-12-29T02:46:27;10.30;99.90
2130;DHT22;1071;52.544;13.374;2022-12-29T02:49:01;10.40;99.90
2130;DHT22;1071;52.544;13.374;2022-12-29T02:51:42;10.40;99.90
2130;DHT22;1071;52.544;13.374;2022-12-29T02:54:10;10.40;99.90
2130;DHT22;1071;52.544;13.374;2022-12-29T02:56:54;10.40;99.90
2130;DHT22;1071;52.544;13.374;2022-12-29T02:59:22;10.50;99.90
2130;DHT22;1071;52.544;13.374;2022-12-29T03:02:13;10.50;99.90
2130;DHT22;1071;52.544;13.374;2022-12-29T03:05:17;10.40;99.90
2130;DHT22;1071;52.544;13.374;2022-12-29T03:07:50;10.50;99.90
2130;DHT22;1071;52.544;13.374;2022-12-29T03:10:31;10.50;99.90
2130;DHT22;1071;52.544;13.374;2022-12-29T03:13:02;10.50;99.90
2130;DHT22;1071;52.544;13.374;2022-12-29T03:15:55;10.50;99.90
2130;DHT22;1071;52.544;13.374;2022-12-29T03:18:34;10.60;99.90
2130;DHT22;1071;52.544;13.374;2022-12-29T03:21:09;10.50;99.90
2130;DHT22;1071;52.544;13.374;2022-12-29T03:23:37;10.50;99.90
2130;DHT22;1071;52.544;13.374;2022-12-29T03:26:08;10.60;99.90
2130;DHT22;1071;52.544;13.374;2022-12-29T03:28:40;10.70;99.90
2130;DHT22;1071;52.544;13.374;2022-12-29T03:31:23;10.70;99.90
2130;DHT22;1071;52.544;13.374;2022-12-29T03:33:55;10.70;99.90
2130;DHT22;1071;52.544;13.374;2022-12-29T03:36:47;10.80;99.90
2130;DHT22;1071;52.544;13.374;2022-12-29T03:39:15;10.80;99.90
2130;DHT22;1071;52.544;13.374;2022-12-29T03:41:45;10.80;99.90
2130;DHT22;1071;52.544;13.374;2022-12-29T03:44:12;10.80;99.90
2130;DHT22;1071;52.544;13.374;2022-12-29T03:46:40;10.80;99.90
2130;DHT22;1071;52.544;13.374;2022-12-29T03:49:09;10.90;99.90
2130;DHT22;1071;52.544;13.374;2022-12-29T03:51:36;10.90;99.90
2130;DHT22;1071;52.544;13.374;2022-12-29T03:54:04;11.00;99.90
2130;DHT22;1071;52.544;13.374;2022-12-29T03:56:31;11.00;99.90
2130;DHT22;1071;52.544;13.374;2022-12-29T03:58:59;10.90;99.90
2130;DHT22;1071;52.544;13.374;2022-12-29T04:01:26;10.90;99.90
2130;DHT22;1071;52.544;13.374;2022-12-29T04:03:54;11.00;99.90
2130;DHT22;1071;52.544;13.374;2022-12-29T04:06:25;11.00;99.90
2130;DHT22;1071;52.544;13.374;2022-12-29T04:08:52;11.00;99.90
2130;DHT22;1071;52.544;13.374;2022-12-29T04:11:20;11.00;99.90
2130;DHT22;1071;52.544;13.374;2022-12-29T04:13:48;11.00;99.90
2130;DHT22;1071;52.544;13.374;2022-12-29T04:16:15;11.10;99.90
2130;DHT22;1071;52.544;13.374;2022-12-29T04:18:44;11.10;99.90
2130;DHT22;1071;52.544;13.374;2022-12-29T04:21:11;11.10;99.90
2130;DHT22;1071;52.544;13.374;2022-12-29T04:23:39;11.20;99.90
2130;DHT22;1071;52.544;13.374;2022-12-29T04:26:07;11.20;99.90
2130;DHT22;1071;52.544;13.374;2022-12-29T04:28:35;11.20;99.90
2130;DHT22;1071;52.544;13.374;2022-12-29T04:31:03;11.20;99.90
2130;DHT22;1071;52.544;13.374;2022-12-29T04:33:30;11.10;99.90
2130;DHT22;1071;52.544;13.374;2022-12-29T04:36:00;11.20;99.90
2130;DHT22;1071;52.544;13.374;2022-12-29T04:38:27;11.20;99.90
2130;DHT22;1071;52.544;13.374;2022-12-29T04:40:59;11.10;99.90
2130;DHT22;1071;52.544;13.374;2022-12-29T04:43:26;11.20;99.90
2130;DHT22;1071;52.544;13.374;2022-12-29T04:45:54;11.20;99.90
2130;DHT22;1071;52.544;13.374;2022-12-29T04:48:21;11.20;99.90
2130;DHT22;1071;52.544;13.374;2022-12-29T04:50:50;11.20;99.90
2130;DHT22;1071;52.544;13.374;2022-12-29T04:53:18;11.20;99.90
2130;DHT22;1071;52.544;13.374;2022-12-29T04:55:48;11.20;99.90
2130;DHT22;1071;52.544;13.374;2022-12-29T04:58:20;11.20;99.90
2130;DHT22;1071;52.544;13.374;2022-12-29T05:00:47;11.20;99.90
2130;DHT22;1071;52.544;13.374;2022-12-29T05:03:14;11.20;99.90
2130;DHT22;1071;52.544;13.374;2022-12-29T05:05:41;11.20;99.90
2130;DHT22;1071;52.544;13.374;2022-12-29T05:08:08;11.20;99.90
2130;DHT22;1071;52.544;13.374;2022-12-29T05:10:35;11.30;99.90
2130;DHT22;1071;52.544;13.374;2022-12-29T05:13:05;11.30;99.90
2130;DHT22;1071;52.544;13.374;2022-12-29T05:15:33;11.20;99.90
2130;DHT22;1071;52.544;13.374;2022-12-29T05:18:00;11.20;99.90
2130;DHT22;1071;52.544;13.374;2022-12-29T05:20:28;11.30;99.90
2130;DHT22;1071;52.544;13.374;2022-12-29T05:22:55;11.30;99.90
2130;DHT22;1071;52.544;13.374;2022-12-29T05:25:22;11.30;99.90
2130;DHT22;1071;52.544;13.374;2022-12-29T05:27:49;11.40;99.90
2130;DHT22;1071;52.544;13.374;2022-12-29T05:30:16;11.30;99.90
2130;DHT22;1071;52.544;13.374;2022-12-29T05:32:45;11.40;99.90
2130;DHT22;1071;52.544;13.374;2022-12-29T05:35:11;11.30;99.90
2130;DHT22;1071;52.544;13.374;2022-12-29T05:37:38;11.30;99.90
2130;DHT22;1071;52.544;13.374;2022-12-29T05:40:09;11.30;99.90
2130;DHT22;1071;52.544;13.374;2022-12-29T05:42:37;11.30;99.90
2130;DHT22;1071;52.544;13.374;2022-12-29T05:45:05;11.30;99.90
2130;DHT22;1071;52.544;13.374;2022-12-29T05:47:33;11.30;99.90
2130;DHT22;1071;52.544;13.374;2022-12-29T05:50:01;11.30;99.90
2130;DHT22;1071;52.544;13.374;2022-12-29T05:52:28;11.40;99.90
2130;DHT22;1071;52.544;13.374;2022-12-29T05:54:55;11.40;99.90
2130;DHT22;1071;52.544;13.374;2022-12-29T05:57:23;11.40;99.90
2130;DHT22;1071;52.544;13.374;2022-12-29T05:59:50;11.40;99.90
2130;DHT22;1071;52.544;13.374;2022-12-29T06:02:17;11.50;99.90
2130;DHT22;1071;52.544;13.374;2022-12-29T06:04:44;11.50;99.90
2130;DHT22;1071;52.544;13.374;2022-12-29T06:07:12;11.50;99.90
2130;DHT22;1071;52.544;13.374;2022-12-29T06:09:40;11.50;99.90
2130;DHT22;1071;52.544;13.374;2022-12-29T06:12:07;11.50;99.90
2130;DHT22;1071;52.544;13.374;2022-12-29T06:14:36;11.50;99.90
2130;DHT22;1071;52.544;13.374;2022-12-29T06:17:03;11.50;99.90
2130;DHT22;1071;52.544;13.374;2022-12-29T06:19:32;11.60;99.90
2130;DHT22;1071;52.544;13.374;2022-12-29T06:21:59;11.60;99.90
2130;DHT22;1071;52.544;13.374;2022-12-29T06:24:28;11.60;99.90
2130;DHT22;1071;52.544;13.374;2022-12-29T06:26:56;11.60;99.90
2130;DHT22;1071;52.544;13.374;2022-12-29T06:29:23;11.70;99.90
2130;DHT22;1071;52.544;13.374;2022-12-29T06:31:50;11.70;99.90
2130;DHT22;1071;52.544;13.374;2022-12-29T06:34:21;11.70;99.90
2130;DHT22;1071;52.544;13.374;2022-12-29T06:36:50;11.70;99.90
2130;DHT22;1071;52.544;13.374;2022-12-29T06:39:20;11.70;99.90
2130;DHT22;1071;52.544;13.374;2022-12-29T06:41:51;11.80;99.90
2130;DHT22;1071;52.544;13.374;2022-12-29T06:44:18;11.80;99.90
2130;DHT22;1071;52.544;13.374;2022-12-29T06:46:45;11.80;99.90
2130;DHT22;1071;52.544;13.374;2022-12-29T06:49:12;11.80;99.90
2130;DHT22;1071;52.544;13.374;2022-12-29T06:51:39;11.80;99.90
2130;DHT22;1071;52.544;13.374;2022-12-29T06:54:06;11.80;99.90
2130;DHT22;1071;52.544;13.374;2022-12-29T06:56:33;11.80;99.90
2130;DHT22;1071;52.544;13.374;2022-12-29T06:59:01;11.90;99.90
2130;DHT22;1071;52.544;13.374;2022-12-29T07:01:28;11.90;99.90
2130;DHT22;1071;52.544;13.374;2022-12-29T07:03:55;11.90;99.90
2130;DHT22;1071;52.544;13.374;2022-12-29T07:06:23;11.80;99.90
2130;DHT22;1071;52.544;13.374;2022-12-29T07:08:49;11.80;99.90
2130;DHT22;1071;52.544;13.374;2022-12-29T07:11:19;11.90;99.90
2130;DHT22;1071;52.544;13.374;2022-12-29T07:13:46;11.80;99.90
2130;DHT22;1071;52.544;13.374;2022-12-29T07:16:15;11.80;99.90
2130;DHT22;1071;52.544;13.374;2022-12-29T07:18:45;11.80;99.90
2130;DHT22;1071;52.544;13.374;2022-12-29T07:21:12;11.80;99.90
2130;DHT22;1071;52.544;13.374;2022-12-29T07:23:39;11.70;99.90
2130;DHT22;1071;52.544;13.374;2022-12-29T07:26:09;11.80;99.90
2130;DHT22;1071;52.544;13.374;2022-12-29T07:28:37;11.70;99.90
2130;DHT22;1071;52.544;13.374;2022-12-29T07:31:04;11.70;99.90
2130;DHT22;1071;52.544;13.374;2022-12-29T07:33:32;11.70;99.90
2130;DHT22;1071;52.544;13.374;2022-12-29T07:36:00;11.70;99.90
2130;DHT22;1071;52.544;13.374;2022-12-29T07:38:27;11.70;99.90
2130;DHT22;1071;52.544;13.374;2022-12-29T07:40:57;11.70;99.90
2130;DHT22;1071;52.544;13.374;2022-12-29T07:43:24;11.70;99.90
2130;DHT22;1071;52.544;13.374;2022-12-29T07:45:51;11.70;99.90
2130;DHT22;1071;52.544;13.374;2022-12-29T07:48:21;11.70;99.90
2130;DHT22;1071;52.544;13.374;2022-12-29T07:50:50;11.70;99.90
2130;DHT22;1071;52.544;13.374;2022-12-29T07:53:18;11.70;99.90
2130;DHT22;1071;52.544;13.374;2022-12-29T07:55:47;11.70;99.90
2130;DHT22;1071;52.544;13.374;2022-12-29T07:58:14;11.70;99.90
2130;DHT22;1071;52.544;13.374;2022-12-29T08:00:41;11.70;99.90
2130;DHT22;1071;52.544;13.374;2022-12-29T08:03:08;11.80;99.90
2130;DHT22;1071;52.544;13.374;2022-12-29T08:05:35;11.70;99.90
2130;DHT22;1071;52.544;13.374;2022-12-29T08:08:04;11.80;99.90
2130;DHT22;1071;52.544;13.374;2022-12-29T08:10:31;11.80;99.90
2130;DHT22;1071;52.544;13.374;2022-12-29T08:12:58;11.70;99.90
2130;DHT22;1071;52.544;13.374;2022-12-29T08:15:28;11.70;99.90
2130;DHT22;1071;52.544;13.374;2022-12-29T08:17:55;11.70;99.90
2130;DHT22;1071;52.544;13.374;2022-12-29T08:20:22;11.80;99.90
2130;DHT22;1071;52.544;13.374;2022-12-29T08:22:49;11.80;99.90
2130;DHT22;1071;52.544;13.374;2022-12-29T08:25:18;11.80;99.90
2130;DHT22;1071;52.544;13.374;2022-12-29T08:27:46;11.80;99.90
2130;DHT22;1071;52.544;13.374;2022-12-29T08:30:14;11.80;99.90
2130;DHT22;1071;52.544;13.374;2022-12-29T08:32:41;11.80;99.90
2130;DHT22;1071;52.544;13.374;2022-12-29T08:35:09;11.80;99.90
2130;DHT22;1071;52.544;13.374;2022-12-29T08:37:36;11.90;99.90
2130;DHT22;1071;52.544;13.374;2022-12-29T08:40:11;11.80;99.90
2130;DHT22;1071;52.544;13.374;2022-12-29T08:42:41;11.80;99.90
2130;DHT22;1071;52.544;13.374;2022-12-29T08:45:09;11.80;99.90
2130;DHT22;1071;52.544;13.374;2022-12-29T08:47:36;11.80;99.90
2130;DHT22;1071;52.544;13.374;2022-12-29T08:50:03;11.90;99.90
2130;DHT22;1071;52.544;13.374;2022-12-29T08:52:30;11.80;99.90
2130;DHT22;1071;52.544;13.374;2022-12-29T08:54:57;11.80;99.90
2130;DHT22;1071;52.544;13.374;2022-12-29T08:57:24;11.90;99.90
2130;DHT22;1071;52.544;13.374;2022-12-29T08:59:52;11.90;99.90
2130;DHT22;1071;52.544;13.374;2022-12-29T09:02:22;11.90;99.90
2130;DHT22;1071;52.544;13.374;2022-12-29T09:04:49;11.90;99.90
2130;DHT22;1071;52.544;13.374;2022-12-29T09:07:19;12.00;99.90
2130;DHT22;1071;52.544;13.374;2022-12-29T09:09:46;12.00;99.90
2130;DHT22;1071;52.544;13.374;2022-12-29T09:12:14;12.00;99.90
2130;DHT22;1071;52.544;13.374;2022-12-29T09:14:41;12.00;99.90
2130;DHT22;1071;52.544;13.374;2022-12-29T09:17:11;12.10;99.90
2130;DHT22;1071;52.544;13.374;2022-12-29T09:19:55;12.10;99.90
2130;DHT22;1071;52.544;13.374;2022-12-29T09:22:22;12.20;99.90
2130;DHT22;1071;52.544;13.374;2022-12-29T09:24:58;12.10;99.90
2130;DHT22;1071;52.544;13.374;2022-12-29T09:27:32;12.20;99.90
2130;DHT22;1071;52.544;13.374;2022-12-29T09:30:31;12.20;99.90
2130;DHT22;1071;52.544;13.374;2022-12-29T09:33:18;12.20;99.90
2130;DHT22;1071;52.544;13.374;2022-12-29T09:36:28;12.30;99.90
2130;DHT22;1071;52.544;13.374;2022-12-29T09:39:17;12.20;99.90
2130;DHT22;1071;52.544;13.374;2022-12-29T09:47:54;12.20;99.90
2130;DHT22;1071;52.544;13.374;2022-12-29T09:50:49;12.20;99.90
2130;DHT22;1071;52.544;13.374;2022-12-29T09:53:33;12.20;99.90
2130;DHT22;1071;52.544;13.374;2022-12-29T09:56:10;12.30;99.90
2130;DHT22;1071;52.544;13.374;2022-12-29T09:58:50;12.30;99.90
2130;DHT22;1071;52.544;13.374;2022-12-29T10:01:36;12.30;99.90
2130;DHT22;1071;52.544;13.374;2022-12-29T10:04:15;12.30;99.90
2130;DHT22;1071;52.544;13.374;2022-12-29T10:07:03;12.40;99.90
2130;DHT22;1071;52.544;13.374;2022-12-29T10:09:37;12.40;99.90
2130;DHT22;1071;52.544;13.374;2022-12-29T10:12:28;12.40;99.90
2130;DHT22;1071;52.544;13.374;2022-12-29T10:15:04;12.50;99.90
2130;DHT22;1071;52.544;13.374;2022-12-29T10:17:52;12.60;99.90
2130;DHT22;1071;52.544;13.374;2022-12-29T10:20:37;12.60;99.90
2130;DHT22;1071;52.544;13.374;2022-12-29T10:23:24;12.60;99.90
2130;DHT22;1071;52.544;13.374;2022-12-29T10:26:00;12.60;99.90
2130;DHT22;1071;52.544;13.374;2022-12-29T10:28:49;12.60;99.90
2130;DHT22;1071;52.544;13.374;2022-12-29T10:31:22;12.60;99.90
2130;DHT22;1071;52.544;13.374;2022-12-29T10:34:10;12.60;99.90
2130;DHT22;1071;52.544;13.374;2022-12-29T10:37:03;12.70;99.90
2130;DHT22;1071;52.544;13.374;2022-12-29T10:39:55;12.70;99.90
2130;DHT22;1071;52.544;13.374;2022-12-29T10:42:33;12.80;99.90
2130;DHT22;1071;52.544;13.374;2022-12-29T10:45:10;12.90;99.90
2130;DHT22;1071;52.544;13.374;2022-12-29T10:47:53;12.90;99.90
2130;DHT22;1071;52.544;13.374;2022-12-29T10:50:37;13.00;99.90
2130;DHT22;1071;52.544;13.374;2022-12-29T10:53:20;13.00;99.90
2130;DHT22;1071;52.544;13.374;2022-12-29T10:55:50;13.10;99.90
2130;DHT22;1071;52.544;13.374;2022-12-29T10:58:18;13.10;99.90
2130;DHT22;1071;52.544;13.374;2022-12-29T11:00:50;13.10;99.90
2130;DHT22;1071;52.544;13.374;2022-12-29T11:06:28;13.20;99.90
2130;DHT22;1071;52.544;13.374;2022-12-29T11:08:58;13.30;99.90
2130;DHT22;1071;52.544;13.374;2022-12-29T11:11:32;13.30;99.90
2130;DHT22;1071;52.544;13.374;2022-12-29T11:14:08;13.30;99.90
2130;DHT22;1071;52.544;13.374;2022-12-29T11:16:39;13.30;99.90
2130;DHT22;1071;52.544;13.374;2022-12-29T11:19:21;13.30;99.90
2130;DHT22;1071;52.544;13.374;2022-12-29T11:21:55;13.30;99.90
2130;DHT22;1071;52.544;13.374;2022-12-29T11:24:27;13.40;99.90
2130;DHT22;1071;52.544;13.374;2022-12-29T11:27:08;13.40;99.90
2130;DHT22;1071;52.544;13.374;2022-12-29T11:29:39;13.40;99.90
2130;DHT22;1071;52.544;13.374;2022-12-29T11:32:17;13.30;99.90
2130;DHT22;1071;52.544;13.374;2022-12-29T11:34:45;13.40;99.90
2130;DHT22;1071;52.544;13.374;2022-12-29T11:37:14;13.40;99.90
2130;DHT22;1071;52.544;13.374;2022-12-29T11:39:54;13.40;99.90
2130;DHT22;1071;52.544;13.374;2022-12-29T11:42:35;13.40;99.90
2130;DHT22;1071;52.544;13.374;2022-12-29T11:45:12;13.50;99.90
2130;DHT22;1071;52.544;13.374;2022-12-29T11:47:46;13.40;99.90
2130;DHT22;1071;52.544;13.374;2022-12-29T11:50:18;13.40;99.90
2130;DHT22;1071;52.544;13.374;2022-12-29T11:52:59;13.40;99.90
2130;DHT22;1071;52.544;13.374;2022-12-29T11:55:28;13.40;99.90
2130;DHT22;1071;52.544;13.374;2022-12-29T11:57:59;13.40;99.90
2130;DHT22;1071;52.544;13.374;2022-12-29T12:00:31;13.30;99.90
2130;DHT22;1071;52.544;13.374;2022-12-29T12:03:05;13.30;99.90
2130;DHT22;1071;52.544;13.374;2022-12-29T12:05:39;13.30;99.90
2130;DHT22;1071;52.544;13.374;2022-12-29T12:08:19;13.40;99.90
2130;DHT22;1071;52.544;13.374;2022-12-29T12:10:54;13.30;99.90
2130;DHT22;1071;52.544;13.374;2022-12-29T12:13:29;13.30;99.90
2130;DHT22;1071;52.544;13.374;2022-12-29T12:16:04;13.20;99.90
2130;DHT22;1071;52.544;13.374;2022-12-29T12:18:39;13.10;99.90
2130;DHT22;1071;52.544;13.374;2022-12-29T12:21:15;13.00;99.90
2130;DHT22;1071;52.544;13.374;2022-12-29T12:26:52;12.80;99.90
2130;DHT22;1071;52.544;13.374;2022-12-29T12:29:26;12.70;99.90
2130;DHT22;1071;52.544;13.374;2022-12-29T12:32:02;12.70;99.90
2130;DHT22;1071;52.544;13.374;2022-12-29T12:34:36;12.70;99.90
2130;DHT22;1071;52.544;13.374;2022-12-29T12:37:19;12.60;99.90
2130;DHT22;1071;52.544;13.374;2022-12-29T12:40:02;12.60;99.90
2130;DHT22;1071;52.544;13.374;2022-12-29T12:42:39;12.60;99.90
2130;DHT22;1071;52.544;13.374;2022-12-29T12:45:37;12.60;99.90
2130;DHT22;1071;52.544;13.374;2022-12-29T12:48:18;12.50;99.90
2130;DHT22;1071;52.544;13.374;2022-12-29T12:50:53;12.50;99.90
2130;DHT22;1071;52.544;13.374;2022-12-29T12:53:52;12.50;99.90
2130;DHT22;1071;52.544;13.374;2022-12-29T12:56:38;12.50;99.90
2130;DHT22;1071;52.544;13.374;2022-12-29T12:59:13;12.50;99.90
2130;DHT22;1071;52.544;13.374;2022-12-29T13:01:52;12.60;99.90
2130;DHT22;1071;52.544;13.374;2022-12-29T13:04:47;12.50;99.90
2130;DHT22;1071;52.544;13.374;2022-12-29T13:07:29;12.50;99.90
2130;DHT22;1071;52.544;13.374;2022-12-29T13:10:12;12.60;99.90
2130;DHT22;1071;52.544;13.374;2022-12-29T13:12:48;12.50;99.90
2130;DHT22;1071;52.544;13.374;2022-12-29T13:15:30;12.50;99.90
2130;DHT22;1071;52.544;13.374;2022-12-29T13:18:13;12.60;99.90
2130;DHT22;1071;52.544;13.374;2022-12-29T13:20:48;12.50;99.90
2130;DHT22;1071;52.544;13.374;2022-12-29T13:23:22;12.60;99.90
2130;DHT22;1071;52.544;13.374;2022-12-29T13:25:54;12.60;99.90
2130;DHT22;1071;52.544;13.374;2022-12-29T13:28:27;12.60;99.90
2130;DHT22;1071;52.544;13.374;2022-12-29T13:31:01;12.60;99.90
2130;DHT22;1071;52.544;13.374;2022-12-29T13:33:37;12.50;99.90
2130;DHT22;1071;52.544;13.374;2022-12-29T13:36:20;12.50;99.90
2130;DHT22;1071;52.544;13.374;2022-12-29T13:38:57;12.50;99.90
2130;DHT22;1071;52.544;13.374;2022-12-29T13:41:46;12.40;99.90
2130;DHT22;1071;52.544;13.374;2022-12-29T13:44:20;12.40;99.90
2130;DHT22;1071;52.544;13.374;2022-12-29T13:46:49;12.40;99.90
2130;DHT22;1071;52.544;13.374;2022-12-29T13:49:20;12.30;99.90
2130;DHT22;1071;52.544;13.374;2022-12-29T13:51:52;12.30;99.90
2130;DHT22;1071;52.544;13.374;2022-12-29T13:54:29;12.30;99.90
2130;DHT22;1071;52.544;13.374;2022-12-29T13:57:06;12.40;99.90
2130;DHT22;1071;52.544;13.374;2022-12-29T13:59:40;12.30;99.90
2130;DHT22;1071;52.544;13.374;2022-12-29T14:02:17;12.30;99.90
2130;DHT22;1071;52.544;13.374;2022-12-29T14:05:01;12.30;99.90
2130;DHT22;1071;52.544;13.374;2022-12-29T14:07:29;12.40;99.90
2130;DHT22;1071;52.544;13.374;2022-12-29T14:10:03;12.40;99.90
2130;DHT22;1071;52.544;13.374;2022-12-29T14:12:34;12.40;99.90
2130;DHT22;1071;52.544;13.374;2022-12-29T14:15:15;12.40;99.90
2130;DHT22;1071;52.544;13.374;2022-12-29T14:18:04;12.40;99.90
2130;DHT22;1071;52.544;13.374;2022-12-29T14:20:39;12.50;99.90
2130;DHT22;1071;52.544;13.374;2022-12-29T14:23:17;12.50;99.90
2130;DHT22;1071;52.544;13.374;2022-12-29T14:26:09;12.50;99.90
2130;DHT22;1071;52.544;13.374;2022-12-29T14:28:39;12.40;99.90
2130;DHT22;1071;52.544;13.374;2022-12-29T14:31:34;12.50;99.90
2130;DHT22;1071;52.544;13.374;2022-12-29T14:34:27;12.40;99.90
2130;DHT22;1071;52.544;13.374;2022-12-29T14:36:58;12.40;99.90
2130;DHT22;1071;52.544;13.374;2022-12-29T14:39:35;12.40;99.90
2130;DHT22;1071;52.544;13.374;2022-12-29T14:42:06;12.40;99.90
2130;DHT22;1071;52.544;13.374;2022-12-29T14:44:46;12.40;99.90
2130;DHT22;1071;52.544;13.374;2022-12-29T14:47:19;12.50;99.90
2130;DHT22;1071;52.544;13.374;2022-12-29T14:50:07;12.40;99.90
2130;DHT22;1071;52.544;13.374;2022-12-29T14:55:39;12.40;99.90
2130;DHT22;1071;52.544;13.374;2022-12-29T14:58:14;12.50;99.90
2130;DHT22;1071;52.544;13.374;2022-12-29T15:00:42;12.50;99.90
2130;DHT22;1071;52.544;13.374;2022-12-29T15:03:17;12.40;99.90
2130;DHT22;1071;52.544;13.374;2022-12-29T15:05:48;12.40;99.90
2130;DHT22;1071;52.544;13.374;2022-12-29T15:11:41;12.40;99.90
2130;DHT22;1071;52.544;13.374;2022-12-29T15:14:30;12.40;99.90
2130;DHT22;1071;52.544;13.374;2022-12-29T15:17:08;12.40;99.90
2130;DHT22;1071;52.544;13.374;2022-12-29T15:19:36;12.40;99.90
2130;DHT22;1071;52.544;13.374;2022-12-29T15:22:27;12.40;99.90
2130;DHT22;1071;52.544;13.374;2022-12-29T15:24:56;12.50;99.90
2130;DHT22;1071;52.544;13.374;2022-12-29T15:27:48;12.50;99.90
2130;DHT22;1071;52.544;13.374;2022-12-29T15:30:17;12.50;99.90
2130;DHT22;1071;52.544;13.374;2022-12-29T15:32:46;12.50;99.90
2130;DHT22;1071;52.544;13.374;2022-12-29T15:35:31;12.50;99.90
2130;DHT22;1071;52.544;13.374;2022-12-29T15:38:00;12.60;99.90
2130;DHT22;1071;52.544;13.374;2022-12-29T15:40:39;12.50;99.90
2130;DHT22;1071;52.544;13.374;2022-12-29T15:43:18;12.50;99.90
2130;DHT22;1071;52.544;13.374;2022-12-29T15:45:54;12.50;99.90
2130;DHT22;1071;52.544;13.374;2022-12-29T15:48:24;12.50;99.90
2130;DHT22;1071;52.544;13.374;2022-12-29T15:50:52;12.50;99.90
2130;DHT22;1071;52.544;13.374;2022-12-29T15:53:21;12.40;99.90
2130;DHT22;1071;52.544;13.374;2022-12-29T15:56:01;12.40;99.90
2130;DHT22;1071;52.544;13.374;2022-12-29T15:58:43;12.40;99.90
2130;DHT22;1071;52.544;13.374;2022-12-29T16:01:23;12.40;99.90
2130;DHT22;1071;52.544;13.374;2022-12-29T16:03:54;12.40;99.90
2130;DHT22;1071;52.544;13.374;2022-12-29T16:06:30;12.40;99.90
2130;DHT22;1071;52.544;13.374;2022-12-29T16:09:02;12.40;99.90
2130;DHT22;1071;52.544;13.374;2022-12-29T16:11:34;12.30;99.90
2130;DHT22;1071;52.544;13.374;2022-12-29T16:14:07;12.30;99.90
2130;DHT22;1071;52.544;13.374;2022-12-29T16:16:44;12.40;99.90
2130;DHT22;1071;52.544;13.374;2022-12-29T16:19:20;12.40;99.90
2130;DHT22;1071;52.544;13.374;2022-12-29T16:21:48;12.30;99.90
2130;DHT22;1071;52.544;13.374;2022-12-29T16:24:17;12.40;99.90
2130;DHT22;1071;52.544;13.374;2022-12-29T16:26:47;12.40;99.90
2130;DHT22;1071;52.544;13.374;2022-12-29T16:29:17;12.40;99.90
2130;DHT22;1071;52.544;13.374;2022-12-29T16:31:56;12.40;99.90
2130;DHT22;1071;52.544;13.374;2022-12-29T16:34:31;12.30;99.90
2130;DHT22;1071;52.544;13.374;2022-12-29T16:36:59;12.30;99.90
2130;DHT22;1071;52.544;13.374;2022-12-29T16:39:34;12.30;99.90
2130;DHT22;1071;52.544;13.374;2022-12-29T16:42:35;12.30;99.90
2130;DHT22;1071;52.544;13.374;2022-12-29T16:48:30;12.30;99.90
2130;DHT22;1071;52.544;13.374;2022-12-29T16:51:09;12.20;99.90
2130;DHT22;1071;52.544;13.374;2022-12-29T16:53:49;12.20;99.90
2130;DHT22;1071;52.544;13.374;2022-12-29T16:56:24;12.30;99.90